createdAt,value
2022-08-19T00:02:09.972Z,101227.16
2022-08-19T00:04:37.717Z,101230.84
2022-08-19T00:07:07.404Z,101225.78
2022-08-19T00:09:34.559Z,101215.28
2022-08-19T00:12:02.567Z,101219.06
2022-08-19T00:14:33.613Z,101218.41
2022-08-19T00:17:01.320Z,101223.88
2022-08-19T00:19:29.143Z,101219.63
2022-08-19T00:21:57.361Z,101212.75
2022-08-19T00:24:24.905Z,101208.44
2022-08-19T00:26:53.266Z,101211.34
2022-08-19T00:29:25.800Z,101208.00
2022-08-19T00:31:58.912Z,101209.03
2022-08-19T00:34:29.766Z,101210.91
2022-08-19T00:36:58.164Z,101212.91
2022-08-19T00:39:25.335Z,101214.72
2022-08-19T00:41:52.916Z,101223.66
2022-08-19T00:44:27.372Z,101226.38
2022-08-19T00:46:59.880Z,101220.28
2022-08-19T00:49:43.628Z,101223.03
2022-08-19T00:52:20.698Z,101221.31
2022-08-19T00:54:52.675Z,101210.72
2022-08-19T00:57:30.150Z,101218.88
2022-08-19T01:00:02.924Z,101215.44
2022-08-19T01:02:33.180Z,101228.06
2022-08-19T01:05:05.126Z,101218.44
2022-08-19T01:07:35.839Z,101227.47
2022-08-19T01:10:11.646Z,101226.69
2022-08-19T01:12:40.567Z,101224.97
2022-08-19T01:15:12.810Z,101224.16
2022-08-19T01:17:41.896Z,101220.75
2022-08-19T01:20:16.403Z,101224.34
2022-08-19T01:22:55.744Z,101221.75
2022-08-19T01:25:30.407Z,101220.91
2022-08-19T01:28:06.413Z,101225.34
2022-08-19T01:30:38.891Z,101221.94
2022-08-19T01:33:06.606Z,101221.94
2022-08-19T01:35:36.511Z,101228.19
2022-08-19T01:38:08.632Z,101226.53
2022-08-19T01:40:40.891Z,101230.22
2022-08-19T01:43:08.760Z,101228.50
2022-08-19T01:45:37.156Z,101238.22
2022-08-19T01:48:04.990Z,101232.75
2022-08-19T01:50:35.708Z,101231.66
2022-08-19T01:53:08.847Z,101221.69
2022-08-19T01:55:41.650Z,101227.72
2022-08-19T01:58:23.673Z,101224.72
2022-08-19T02:00:51.667Z,101234.97
2022-08-19T02:03:18.894Z,101241.88
2022-08-19T02:05:46.691Z,101237.28
2022-08-19T02:08:14.023Z,101244.28
2022-08-19T02:10:44.554Z,101247.81
2022-08-19T02:13:14.352Z,101257.28
2022-08-19T02:15:41.915Z,101256.25
2022-08-19T02:18:09.391Z,101259.78
2022-08-19T02:20:39.460Z,101256.25
2022-08-19T02:23:13.471Z,101249.13
2022-08-19T02:25:46.532Z,101242.91
2022-08-19T02:28:17.915Z,101239.56
2022-08-19T02:30:47.599Z,101234.47
2022-08-19T02:33:16.103Z,101236.44
2022-08-19T02:35:47.896Z,101239.28
2022-08-19T02:38:27.774Z,101237.78
2022-08-19T02:41:02.038Z,101243.13
2022-08-19T02:43:33.786Z,101245.09
2022-08-19T02:46:03.279Z,101247.91
2022-08-19T02:48:31.572Z,101251.53
2022-08-19T02:50:58.677Z,101248.09
2022-08-19T02:53:28.826Z,101249.03
2022-08-19T02:55:56.476Z,101250.06
2022-08-19T02:58:25.336Z,101247.47
2022-08-19T03:00:56.571Z,101249.97
2022-08-19T03:03:24.455Z,101246.38
2022-08-19T03:05:56.858Z,101243.56
2022-08-19T03:08:26.530Z,101240.78
2022-08-19T03:10:54.263Z,101235.47
2022-08-19T03:13:21.743Z,101244.41
2022-08-19T03:15:49.486Z,101238.44
2022-08-19T03:18:18.364Z,101243.16
2022-08-19T03:20:50.099Z,101244.34
2022-08-19T03:23:18.124Z,101253.59
2022-08-19T03:26:03.018Z,101253.06
2022-08-19T03:28:38.624Z,101257.44
2022-08-19T03:31:13.554Z,101252.25
2022-08-19T03:34:00.773Z,101257.91
2022-08-19T03:36:28.551Z,101252.81
2022-08-19T03:39:01.321Z,101263.47
2022-08-19T03:41:44.354Z,101260.16
2022-08-19T03:44:23.072Z,101263.97
2022-08-19T03:46:56.325Z,101255.19
2022-08-19T03:49:28.389Z,101253.56
2022-08-19T03:52:00.280Z,101263.34
2022-08-19T03:54:28.674Z,101260.59
2022-08-19T03:56:58.436Z,101251.78
2022-08-19T03:59:33.703Z,101251.81
2022-08-19T04:02:09.906Z,101252.00
2022-08-19T04:04:41.071Z,101257.31
2022-08-19T04:07:10.560Z,101247.66
2022-08-19T04:09:38.520Z,101250.34
2022-08-19T04:12:07.940Z,101252.06
2022-08-19T04:14:35.726Z,101253.16
2022-08-19T04:17:05.870Z,101246.97
2022-08-19T04:19:36.670Z,101252.38
2022-08-19T04:22:05.238Z,101246.34
2022-08-19T04:24:33.354Z,101237.56
2022-08-19T04:27:03.651Z,101234.03
2022-08-19T04:29:31.298Z,101237.56
2022-08-19T04:32:00.380Z,101235.00
2022-08-19T04:35:01.399Z,101231.53
2022-08-19T04:37:29.441Z,101229.91
2022-08-19T04:40:21.261Z,101234.44
2022-08-19T04:42:48.371Z,101231.78
2022-08-19T04:45:17.554Z,101229.03
2022-08-19T04:47:48.347Z,101237.81
2022-08-19T04:50:28.631Z,101243.91
2022-08-19T04:52:56.633Z,101250.88
2022-08-19T04:55:26.369Z,101252.47
2022-08-19T04:57:55.059Z,101254.81
2022-08-19T05:00:22.620Z,101248.41
2022-08-19T05:02:50.264Z,101247.28
2022-08-19T05:05:18.214Z,101255.88
2022-08-19T05:07:45.373Z,101246.72
2022-08-19T05:10:13.715Z,101257.81
2022-08-19T05:12:40.915Z,101259.16
2022-08-19T05:15:09.718Z,101256.28
2022-08-19T05:17:38.875Z,101260.31
2022-08-19T05:20:27.209Z,101267.38
2022-08-19T05:22:54.546Z,101266.44
2022-08-19T05:25:22.946Z,101274.28
2022-08-19T05:27:50.434Z,101267.59
2022-08-19T05:30:18.534Z,101267.66
2022-08-19T05:32:45.893Z,101271.03
2022-08-19T05:35:13.212Z,101268.22
2022-08-19T05:37:41.673Z,101273.69
2022-08-19T05:40:10.958Z,101256.06
2022-08-19T05:42:38.784Z,101258.38
2022-08-19T05:45:07.107Z,101265.81
2022-08-19T05:47:34.158Z,101253.66
2022-08-19T05:50:04.931Z,101259.13
2022-08-19T05:52:32.577Z,101261.72
2022-08-19T05:55:00.758Z,101258.34
2022-08-19T05:57:29.873Z,101260.78
2022-08-19T05:59:59.203Z,101263.53
2022-08-19T06:02:28.936Z,101265.03
2022-08-19T06:04:56.292Z,101262.63
2022-08-19T06:07:23.958Z,101268.06
2022-08-19T06:10:00.386Z,101276.25
2022-08-19T06:12:33.821Z,101272.72
2022-08-19T06:15:14.362Z,101280.56
2022-08-19T06:17:45.225Z,101286.59
2022-08-19T06:20:15.832Z,101280.78
2022-08-19T06:22:52.662Z,101290.84
2022-08-19T06:25:19.898Z,101287.91
2022-08-19T06:28:11.917Z,101279.59
2022-08-19T06:30:34.527Z,101283.72
2022-08-19T06:33:01.775Z,101286.22
2022-08-19T06:35:30.435Z,101290.50
2022-08-19T06:37:57.763Z,101292.03
2022-08-19T06:40:25.142Z,101287.28
2022-08-19T06:42:54.794Z,101298.75
2022-08-19T06:45:24.629Z,101302.19
2022-08-19T06:47:55.263Z,101296.06
2022-08-19T06:50:25.964Z,101294.69
2022-08-19T06:52:53.522Z,101291.94
2022-08-19T06:55:22.075Z,101298.75
2022-08-19T06:57:49.412Z,101303.88
2022-08-19T07:00:16.958Z,101303.69
2022-08-19T07:02:49.585Z,101302.00
2022-08-19T07:05:23.330Z,101292.53
2022-08-19T07:07:50.971Z,101297.44
2022-08-19T07:10:19.368Z,101300.31
2022-08-19T07:12:46.431Z,101294.78
2022-08-19T07:15:13.990Z,101287.88
2022-08-19T07:17:42.241Z,101292.06
2022-08-19T07:20:12.028Z,101299.78
2022-08-19T07:22:40.556Z,101305.84
2022-08-19T07:25:10.373Z,101301.16
2022-08-19T07:27:38.182Z,101301.31
2022-08-19T07:30:12.148Z,101302.31
2022-08-19T07:32:41.080Z,101303.34
2022-08-19T07:35:10.263Z,101298.31
2022-08-19T07:37:38.096Z,101301.19
2022-08-19T07:40:08.670Z,101307.66
2022-08-19T07:42:35.876Z,101319.69
2022-08-19T07:45:07.091Z,101311.44
2022-08-19T07:47:47.687Z,101311.13
2022-08-19T07:50:20.752Z,101315.78
2022-08-19T07:52:50.756Z,101313.09
2022-08-19T07:55:42.683Z,101315.16
2022-08-19T07:58:14.960Z,101320.63
2022-08-19T08:00:43.705Z,101327.22
2022-08-19T08:03:12.430Z,101330.00
2022-08-19T08:05:58.243Z,101336.22
2022-08-19T08:08:47.998Z,101332.13
2022-08-19T08:11:20.501Z,101339.44
2022-08-19T08:19:20.563Z,101342.56
2022-08-19T08:21:56.186Z,101346.00
2022-08-19T08:24:28.297Z,101346.06
2022-08-19T08:26:57.789Z,101347.69
2022-08-19T08:29:34.807Z,101352.31
2022-08-19T08:32:04.446Z,101351.09
2022-08-19T08:34:41.484Z,101352.47
2022-08-19T08:37:08.839Z,101349.41
2022-08-19T08:39:36.049Z,101361.06
2022-08-19T08:42:18.418Z,101362.31
2022-08-19T08:44:59.152Z,101359.72
2022-08-19T08:47:35.712Z,101362.47
2022-08-19T08:50:15.486Z,101361.78
2022-08-19T08:52:52.164Z,101360.25
2022-08-19T08:55:37.128Z,101351.25
2022-08-19T08:58:25.295Z,101356.84
2022-08-19T09:00:52.355Z,101347.47
2022-08-19T09:03:25.573Z,101355.78
2022-08-19T09:06:21.315Z,101347.75
2022-08-19T09:09:11.850Z,101345.44
2022-08-19T09:12:19.136Z,101334.56
2022-08-19T09:15:09.093Z,101342.41
2022-08-19T09:17:39.310Z,101339.25
2022-08-19T09:20:20.671Z,101341.94
2022-08-19T09:22:50.061Z,101338.50
2022-08-19T09:25:29.480Z,101341.19
2022-08-19T09:28:02.980Z,101338.00
2022-08-19T09:30:42.141Z,101337.63
2022-08-19T09:33:09.738Z,101330.88
2022-08-19T09:35:49.504Z,101341.28
2022-08-19T09:38:22.193Z,101339.06
2022-08-19T09:40:50.430Z,101336.00
2022-08-19T09:43:33.197Z,101324.97
2022-08-19T09:46:02.799Z,101328.50
2022-08-19T09:48:30.089Z,101330.44
2022-08-19T09:51:09.018Z,101330.19
2022-08-19T09:53:40.094Z,101340.06
2022-08-19T09:56:08.327Z,101336.59
2022-08-19T09:58:38.195Z,101349.44
2022-08-19T10:01:07.489Z,101342.06
2022-08-19T10:03:37.433Z,101347.56
2022-08-19T10:06:14.931Z,101347.72
2022-08-19T10:08:50.215Z,101348.84
2022-08-19T10:11:27.802Z,101358.84
2022-08-19T10:14:03.863Z,101344.34
2022-08-19T10:16:31.492Z,101343.31
2022-08-19T10:19:06.834Z,101358.53
2022-08-19T10:21:35.325Z,101345.38
2022-08-19T10:24:06.656Z,101355.19
2022-08-19T10:26:38.682Z,101347.19
2022-08-19T10:29:09.475Z,101353.09
2022-08-19T10:32:00.803Z,101351.28
2022-08-19T10:34:27.947Z,101351.88
2022-08-19T10:37:01.164Z,101362.75
2022-08-19T10:39:32.704Z,101375.47
2022-08-19T10:42:11.530Z,101352.41
2022-08-19T10:44:38.855Z,101346.41
2022-08-19T10:47:17.476Z,101363.81
2022-08-19T10:50:11.804Z,101352.03
2022-08-19T10:52:50.396Z,101354.72
2022-08-19T10:55:44.151Z,101343.22
2022-08-19T10:58:18.635Z,101343.69
2022-08-19T11:00:59.779Z,101343.06
2022-08-19T11:03:31.570Z,101336.38
2022-08-19T11:06:05.452Z,101343.06
2022-08-19T11:08:35.331Z,101341.38
2022-08-19T11:11:04.270Z,101340.00
2022-08-19T11:13:34.953Z,101337.09
2022-08-19T11:16:10.499Z,101347.53
2022-08-19T11:18:43.654Z,101349.59
2022-08-19T11:21:17.829Z,101349.50
2022-08-19T11:23:46.731Z,101350.50
2022-08-19T11:26:16.496Z,101362.00
2022-08-19T11:28:44.219Z,101357.47
2022-08-19T11:31:17.568Z,101346.00
2022-08-19T11:33:47.873Z,101336.59
2022-08-19T11:36:16.969Z,101338.88
2022-08-19T11:38:46.271Z,101332.22
2022-08-19T11:41:13.325Z,101332.06
2022-08-19T11:43:40.877Z,101335.31
2022-08-19T11:46:12.709Z,101331.59
2022-08-19T11:48:40.737Z,101333.88
2022-08-19T11:51:16.071Z,101330.78
2022-08-19T11:53:43.538Z,101333.06
2022-08-19T11:56:11.844Z,101333.72
2022-08-19T11:58:40.119Z,101333.00
2022-08-19T12:01:12.052Z,101337.66
2022-08-19T12:03:40.397Z,101342.94
2022-08-19T12:06:13.548Z,101337.09
2022-08-19T12:08:43.223Z,101341.94
2022-08-19T12:11:12.411Z,101332.00
2022-08-19T12:13:40.716Z,101327.91
2022-08-19T12:16:15.096Z,101328.22
2022-08-19T12:18:51.809Z,101339.34
2022-08-19T12:21:29.524Z,101341.78
2022-08-19T12:23:59.508Z,101337.34
2022-08-19T12:26:29.683Z,101330.38
2022-08-19T12:28:56.820Z,101330.84
2022-08-19T12:31:23.912Z,101317.16
2022-08-19T12:33:52.819Z,101321.88
2022-08-19T12:36:20.339Z,101317.31
2022-08-19T12:38:47.757Z,101315.06
2022-08-19T12:41:19.223Z,101322.34
2022-08-19T12:43:46.972Z,101324.47
2022-08-19T12:46:15.156Z,101325.63
2022-08-19T12:48:45.936Z,101321.19
2022-08-19T12:51:18.718Z,101309.78
2022-08-19T12:53:46.869Z,101317.75
2022-08-19T12:56:15.747Z,101310.94
2022-08-19T12:58:49.006Z,101308.53
2022-08-19T13:01:22.655Z,101297.81
2022-08-19T13:03:51.118Z,101297.38
2022-08-19T13:06:19.425Z,101299.94
2022-08-19T13:08:48.183Z,101286.28
2022-08-19T13:11:19.330Z,101293.41
2022-08-19T13:13:49.711Z,101296.00
2022-08-19T13:16:17.128Z,101290.81
2022-08-19T13:18:52.754Z,101296.66
2022-08-19T13:21:23.911Z,101297.66
2022-08-19T13:23:52.510Z,101301.50
2022-08-19T13:26:20.126Z,101299.53
2022-08-19T13:29:05.590Z,101295.13
2022-08-19T13:31:54.964Z,101287.56
2022-08-19T13:34:33.708Z,101276.59
2022-08-19T13:37:04.002Z,101286.78
2022-08-19T13:39:33.773Z,101282.75
2022-08-19T13:42:01.667Z,101275.34
2022-08-19T13:44:32.556Z,101277.66
2022-08-19T13:47:08.096Z,101285.25
2022-08-19T13:49:37.355Z,101287.97
2022-08-19T13:52:06.632Z,101281.56
2022-08-19T13:54:34.049Z,101274.25
2022-08-19T13:57:01.146Z,101264.31
2022-08-19T13:59:28.238Z,101264.88
2022-08-19T14:02:00.979Z,101257.31
2022-08-19T14:04:28.587Z,101256.63
2022-08-19T14:06:56.031Z,101249.63
2022-08-19T14:09:23.314Z,101257.84
2022-08-19T14:11:51.788Z,101258.72
2022-08-19T14:14:18.888Z,101256.59
2022-08-19T14:16:45.903Z,101267.69
2022-08-19T14:19:12.970Z,101260.16
2022-08-19T14:21:41.967Z,101263.22
2022-08-19T14:24:09.681Z,101272.09
2022-08-19T14:26:36.686Z,101266.25
2022-08-19T14:29:03.916Z,101266.03
2022-08-19T14:31:31.118Z,101264.75
2022-08-19T14:33:58.262Z,101267.75
2022-08-19T14:36:25.388Z,101256.31
2022-08-19T14:38:52.632Z,101263.00
2022-08-19T14:41:23.675Z,101254.75
2022-08-19T14:43:54.351Z,101258.84
2022-08-19T14:46:26.292Z,101260.72
2022-08-19T14:48:57.122Z,101254.59
2022-08-19T14:51:28.528Z,101261.97
2022-08-19T14:53:56.342Z,101246.97
2022-08-19T14:56:28.395Z,101248.53
2022-08-19T14:58:56.203Z,101247.50
2022-08-19T15:01:24.207Z,101253.84
2022-08-19T15:03:55.702Z,101252.28
2022-08-19T15:06:25.675Z,101256.88
2022-08-19T15:08:53.748Z,101260.53
2022-08-19T15:11:24.983Z,101256.13
2022-08-19T15:13:52.443Z,101258.66
2022-08-19T15:16:21.188Z,101256.91
2022-08-19T15:18:53.126Z,101260.00
2022-08-19T15:21:27.281Z,101258.00
2022-08-19T15:23:58.202Z,101268.94
2022-08-19T15:26:29.020Z,101263.97
2022-08-19T15:28:56.969Z,101269.09
2022-08-19T15:31:25.438Z,101277.72
2022-08-19T15:33:59.140Z,101274.34
2022-08-19T15:36:28.350Z,101277.28
2022-08-19T15:38:59.001Z,101279.34
2022-08-19T15:41:31.634Z,101279.47
2022-08-19T15:44:04.397Z,101288.25
2022-08-19T15:46:34.247Z,101283.38
2022-08-19T15:49:01.784Z,101281.34
2022-08-19T15:51:32.442Z,101280.56
2022-08-19T15:54:00.394Z,101286.00
2022-08-19T15:56:58.190Z,101284.84
2022-08-19T15:59:47.517Z,101296.06
2022-08-19T16:02:37.175Z,101293.63
2022-08-19T16:05:27.100Z,101293.53
2022-08-19T16:07:54.792Z,101297.47
2022-08-19T16:10:26.459Z,101299.41
2022-08-19T16:12:57.977Z,101298.03
2022-08-19T16:15:30.594Z,101299.72
2022-08-19T16:17:58.150Z,101300.63
2022-08-19T16:20:27.740Z,101304.63
2022-08-19T16:22:58.542Z,101307.78
2022-08-19T16:25:29.246Z,101308.09
2022-08-19T16:28:07.879Z,101303.88
2022-08-19T16:30:39.370Z,101309.28
2022-08-19T16:33:08.013Z,101308.06
2022-08-19T16:35:35.526Z,101302.47
2022-08-19T16:38:02.736Z,101315.59
2022-08-19T16:40:29.975Z,101315.47
2022-08-19T16:42:57.090Z,101308.75
2022-08-19T16:45:24.837Z,101316.59
2022-08-19T16:47:52.246Z,101309.88
2022-08-19T16:50:25.356Z,101305.72
2022-08-19T16:53:09.421Z,101314.66
2022-08-19T16:55:37.672Z,101311.97
2022-08-19T16:58:05.040Z,101310.09
2022-08-19T17:00:32.103Z,101317.22
2022-08-19T17:03:14.749Z,101321.00
2022-08-19T17:05:44.198Z,101319.28
2022-08-19T17:08:11.670Z,101318.09
2022-08-19T17:10:39.879Z,101315.03
2022-08-19T17:13:07.479Z,101310.75
2022-08-19T17:15:34.869Z,101322.50
2022-08-19T17:18:04.975Z,101329.06
2022-08-19T17:20:33.827Z,101329.41
2022-08-19T17:23:01.187Z,101326.72
2022-08-19T17:25:31.358Z,101322.75
2022-08-19T17:28:10.700Z,101324.19
2022-08-19T17:30:38.804Z,101319.84
2022-08-19T17:33:06.103Z,101321.72
2022-08-19T17:35:33.967Z,101318.69
2022-08-19T17:38:07.983Z,101313.34
2022-08-19T17:40:38.598Z,101319.31
2022-08-19T17:43:08.767Z,101309.13
2022-08-19T17:45:38.654Z,101315.81
2022-08-19T17:48:06.486Z,101309.19
2022-08-19T17:50:35.212Z,101302.78
2022-08-19T17:53:05.474Z,101311.97
2022-08-19T17:55:34.666Z,101306.81
2022-08-19T17:58:05.148Z,101303.28
2022-08-19T18:00:35.867Z,101307.69
2022-08-19T18:03:05.990Z,101317.56
2022-08-19T18:05:42.340Z,101319.63
2022-08-19T18:08:12.114Z,101320.84
2022-08-19T18:10:39.272Z,101327.25
2022-08-19T18:13:16.892Z,101328.13
2022-08-19T18:15:44.800Z,101327.25
2022-08-19T18:18:14.903Z,101325.53
2022-08-19T18:20:44.648Z,101328.56
2022-08-19T18:23:45.370Z,101328.03
2022-08-19T18:25:59.363Z,101323.22
2022-08-19T18:28:26.836Z,101335.16
2022-08-19T18:30:54.071Z,101328.41
2022-08-19T18:33:21.227Z,101326.88
2022-08-19T18:35:52.084Z,101323.38
2022-08-19T18:38:40.859Z,101328.81
2022-08-19T18:41:27.644Z,101328.94
2022-08-19T18:44:14.978Z,101326.47
2022-08-19T18:47:00.684Z,101325.69
2022-08-19T18:49:33.799Z,101329.38
2022-08-19T18:52:03.562Z,101327.88
2022-08-19T18:54:30.782Z,101325.50
2022-08-19T18:56:58.003Z,101327.75
2022-08-19T18:59:28.722Z,101327.22
2022-08-19T19:01:59.565Z,101338.13
2022-08-19T19:04:32.789Z,101339.28
2022-08-19T19:07:00.221Z,101344.97
2022-08-19T19:09:27.876Z,101347.13
2022-08-19T19:12:02.670Z,101348.22
2022-08-19T19:14:50.566Z,101353.78
2022-08-19T19:17:18.578Z,101357.09
2022-08-19T19:19:45.750Z,101357.84
2022-08-19T19:22:18.179Z,101357.84
2022-08-19T19:24:45.918Z,101360.53
2022-08-19T19:27:18.362Z,101358.63
2022-08-19T19:29:51.507Z,101374.72
2022-08-19T19:32:36.944Z,101367.94
2022-08-19T19:35:09.829Z,101371.66
2022-08-19T19:37:37.032Z,101378.31
2022-08-19T19:40:04.681Z,101378.63
2022-08-19T19:42:31.709Z,101379.56
2022-08-19T19:45:01.273Z,101387.41
2022-08-19T19:47:30.316Z,101387.09
2022-08-19T19:50:14.296Z,101392.28
2022-08-19T19:52:46.055Z,101391.97
2022-08-19T19:55:17.991Z,101394.66
2022-08-19T19:57:50.042Z,101392.91
2022-08-19T20:00:19.052Z,101396.38
2022-08-19T20:02:50.102Z,101392.72
2022-08-19T20:05:21.269Z,101399.81
2022-08-19T20:08:09.395Z,101399.69
2022-08-19T20:10:37.678Z,101406.78
2022-08-19T20:13:06.698Z,101405.47
2022-08-19T20:15:37.934Z,101405.69
2022-08-19T20:18:07.491Z,101403.19
2022-08-19T20:20:35.446Z,101406.75
2022-08-19T20:23:02.604Z,101407.72
2022-08-19T20:25:30.430Z,101412.13
2022-08-19T20:27:57.750Z,101408.03
2022-08-19T20:30:25.618Z,101416.25
2022-08-19T20:32:56.436Z,101415.41
2022-08-19T20:35:24.024Z,101409.06
2022-08-19T20:37:57.970Z,101412.16
2022-08-19T20:40:27.763Z,101403.66
2022-08-19T20:42:55.422Z,101406.56
2022-08-19T20:45:32.700Z,101406.97
2022-08-19T20:48:03.209Z,101410.81
2022-08-19T20:50:33.415Z,101415.41
2022-08-19T20:53:01.693Z,101417.44
2022-08-19T20:55:30.467Z,101415.06
2022-08-19T20:57:58.632Z,101425.09
2022-08-19T21:00:26.400Z,101422.50
2022-08-19T21:02:53.496Z,101422.81
2022-08-19T21:05:20.645Z,101425.78
2022-08-19T21:07:47.755Z,101431.25
2022-08-19T21:10:16.495Z,101423.38
2022-08-19T21:12:44.393Z,101423.56
2022-08-19T21:15:12.107Z,101427.41
2022-08-19T21:17:39.966Z,101423.31
2022-08-19T21:20:09.718Z,101417.28
2022-08-19T21:22:36.803Z,101420.16
2022-08-19T21:25:05.384Z,101422.16
2022-08-19T21:27:32.888Z,101409.06
2022-08-19T21:30:00.238Z,101421.69
2022-08-19T21:32:27.346Z,101418.34
2022-08-19T21:34:54.439Z,101418.44
2022-08-19T21:37:25.048Z,101424.84
2022-08-19T21:39:55.366Z,101419.41
2022-08-19T21:42:24.058Z,101418.53
2022-08-19T21:44:51.756Z,101418.53
2022-08-19T21:47:19.055Z,101418.53
2022-08-19T21:49:46.242Z,101421.97
2022-08-19T21:52:13.612Z,101415.75
2022-08-19T21:54:41.059Z,101417.41
2022-08-19T21:57:10.900Z,101407.53
2022-08-19T21:59:44.060Z,101413.78
2022-08-19T22:02:22.120Z,101418.34
2022-08-19T22:04:54.567Z,101427.34
2022-08-19T22:07:22.362Z,101417.69
2022-08-19T22:09:51.578Z,101422.94
2022-08-19T22:12:27.191Z,101426.28
2022-08-19T22:14:56.602Z,101431.63
2022-08-19T22:17:26.459Z,101443.22
2022-08-19T22:19:56.275Z,101432.41
2022-08-19T22:22:33.002Z,101434.13
2022-08-19T22:25:31.717Z,101430.50
2022-08-19T22:28:02.098Z,101433.25
2022-08-19T22:30:33.529Z,101435.19
2022-08-19T22:33:06.386Z,101426.38
2022-08-19T22:35:38.187Z,101427.53
2022-08-19T22:38:08.209Z,101427.53
2022-08-19T22:40:40.363Z,101428.47
2022-08-19T22:43:15.125Z,101438.34
2022-08-19T22:45:44.375Z,101435.06
2022-08-19T22:48:15.936Z,101430.88
2022-08-19T22:51:05.059Z,101431.91
2022-08-19T22:53:36.339Z,101441.88
2022-08-19T22:56:06.575Z,101442.72
2022-08-19T22:58:34.267Z,101441.88
2022-08-19T23:01:02.127Z,101442.59
2022-08-19T23:03:29.351Z,101436.41
2022-08-19T23:05:56.933Z,101438.13
2022-08-19T23:08:24.203Z,101440.03
2022-08-19T23:10:51.392Z,101438.31
2022-08-19T23:13:19.009Z,101432.97
2022-08-19T23:15:47.043Z,101441.09
2022-08-19T23:18:14.387Z,101440.16
2022-08-19T23:20:44.684Z,101440.16
2022-08-19T23:23:18.763Z,101441.00
2022-08-19T23:25:47.640Z,101443.66
2022-08-19T23:28:33.360Z,101446.34
2022-08-19T23:31:02.143Z,101442.81
2022-08-19T23:33:50.743Z,101442.81
2022-08-19T23:36:20.943Z,101442.88
2022-08-19T23:38:51.953Z,101441.88
2022-08-19T23:41:23.445Z,101434.56
2022-08-19T23:43:50.877Z,101427.31
2022-08-19T23:46:27.546Z,101432.59
2022-08-19T23:48:57.923Z,101424.56
2022-08-19T23:51:26.315Z,101425.31
2022-08-19T23:53:53.831Z,101425.31
2022-08-19T23:56:21.414Z,101424.47
2022-08-19T23:58:49.208Z,101418.25
